Time;durP1;ratioP1;P1;durP2;ratioP2;P2;SDS_P1;SDS_P2;PMS_P1;PMS_P2;Temp;Humidity;BMP_temperature;BMP_pressure;BME280_temperature;BME280_humidity;BME280_pressure;Samples;Min_cycle;Max_cycle;Signal;HPM_P1;HPM_P2
2021/12/24 00:00:56;;;;;;;33.50;17.98;;;;;;;-2.63;90.95;61728.34;5044096;28;20249;-77
2021/12/24 00:03:23;;;;;;;35.15;19.05;;;;;;;-2.59;90.83;61735.44;5044946;28;20518;-77
2021/12/24 00:05:50;;;;;;;36.03;20.42;;;;;;;-2.54;90.63;61738.06;5054919;28;20220;-77
2021/12/24 00:08:17;;;;;;;39.28;19.83;;;;;;;-2.43;90.31;61753.78;5050563;28;20205;-77
2021/12/24 00:10:48;;;;;;;41.47;20.00;;;;;;;-2.29;89.96;61767.56;5052274;28;20217;-76
2021/12/24 00:13:16;;;;;;;44.30;21.25;;;;;;;-2.27;89.61;61770.13;5046672;28;20211;-77
2021/12/24 00:15:54;;;;;;;40.35;21.40;;;;;;;-2.23;89.11;61776.22;5043271;28;20456;-77
2021/12/24 00:18:33;;;;;;;47.53;23.83;;;;;;;-2.31;89.03;61760.56;5043293;28;20213;-77
2021/12/24 00:37:28;;;;;;;47.92;22.92;;;;;;;-2.10;89.13;61785.03;5036705;28;20410;-76
2021/12/24 00:40:03;;;;;;;52.20;23.02;;;;;;;-2.08;88.19;61787.06;5045793;28;20206;-77
2021/12/24 00:42:32;;;;;;;50.85;23.45;;;;;;;-2.11;88.09;61781.00;5042234;28;20548;-76
2021/12/24 00:44:59;;;;;;;50.08;24.27;;;;;;;-2.07;87.18;61790.09;5048819;28;20206;-77
2021/12/24 00:47:26;;;;;;;45.28;22.45;;;;;;;-2.15;87.29;61782.41;5043573;28;20218;-77
2021/12/24 00:49:53;;;;;;;48.08;23.42;;;;;;;-2.21;88.17;61773.28;5043943;28;20233;-77
2021/12/24 00:52:33;;;;;;;44.60;22.05;;;;;;;-2.23;88.94;61773.72;5042141;28;20232;-78
2021/12/24 00:55:02;;;;;;;40.35;20.55;;;;;;;-2.21;88.69;61773.28;5046140;28;20202;-77
2021/12/24 00:57:29;;;;;;;43.15;21.35;;;;;;;-2.21;88.57;61773.78;5026971;28;20218;-78
2021/12/24 00:59:58;;;;;;;45.33;21.30;;;;;;;-2.31;88.78;61765.53;5025159;28;20414;-77
2021/12/24 01:02:24;;;;;;;27.77;12.68;;;;;;;-2.28;87.55;61771.09;5044280;28;20225;-77
2021/12/24 01:04:51;;;;;;;20.88;11.98;;;;;;;-2.35;86.31;61761.97;5049813;28;20205;-76
2021/12/24 01:07:19;;;;;;;17.38;9.63;;;;;;;-2.49;86.89;61748.16;5066568;28;20224;-77
2021/12/24 01:09:45;;;;;;;16.45;9.52;;;;;;;-2.59;85.86;61740.44;5062064;28;20237;-78
2021/12/24 01:12:12;;;;;;;12.80;8.32;;;;;;;-2.52;86.13;61745.09;5041160;28;20225;-77
2021/12/24 01:14:39;;;;;;;14.52;7.63;;;;;;;-2.43;85.65;61751.81;5043852;28;20206;-77
2021/12/24 01:17:15;;;;;;;15.68;7.95;;;;;;;-2.49;85.66;61747.66;5043921;28;20229;-77
2021/12/24 01:19:45;;;;;;;9.43;7.20;;;;;;;-2.42;84.99;61755.31;5047737;28;20632;-76
2021/12/24 01:22:52;;;;;;;8.40;6.32;;;;;;;-2.30;84.28;61766.56;5048816;28;20221;-76
2021/12/24 01:25:21;;;;;;;10.68;5.90;;;;;;;-2.23;82.98;61773.72;5042842;28;20211;-76
2021/12/24 01:39:04;;;;;;;13.15;4.93;;;;;;;-1.89;75.76;61811.50;5051164;28;20297;-78
2021/12/24 01:44:16;;;;;;;14.73;6.82;;;;;;;-1.90;77.26;61809.97;5043641;28;20248;-77
2021/12/24 01:46:43;;;;;;;26.58;12.73;;;;;;;-2.16;82.48;61778.38;5046184;28;20266;-77
2021/12/24 01:49:11;;;;;;;28.33;15.45;;;;;;;-2.22;83.54;61772.75;5043245;28;20229;-77
2021/12/24 01:51:38;;;;;;;31.75;16.50;;;;;;;-2.30;84.61;61764.59;5043619;28;20413;-77
2021/12/24 01:54:05;;;;;;;28.90;16.75;;;;;;;-2.32;85.40;61770.00;5043468;28;20248;-77
2021/12/24 01:56:32;;;;;;;33.42;17.40;;;;;;;-2.43;85.87;61753.78;5041362;28;20226;-77
2021/12/24 01:58:59;;;;;;;34.75;19.48;;;;;;;-2.38;86.16;61758.88;5042434;28;20236;-77
2021/12/24 02:01:27;;;;;;;30.90;17.10;;;;;;;-2.43;85.79;61759.28;5043447;28;20257;-77
2021/12/24 02:03:54;;;;;;;28.98;15.15;;;;;;;-2.42;85.56;61754.81;5042239;28;20202;-77
2021/12/24 02:06:23;;;;;;;20.50;12.93;;;;;;;-2.61;85.77;61735.91;5038931;28;20538;-77
2021/12/24 02:08:49;;;;;;;15.73;9.68;;;;;;;-2.64;84.54;61732.81;5042952;28;20395;-77
2021/12/24 02:11:16;;;;;;;13.57;8.35;;;;;;;-2.64;84.04;61732.81;5043342;28;20222;-77
2021/12/24 02:13:43;;;;;;;19.25;8.90;;;;;;;-2.63;84.20;61733.34;5041260;28;20197;-78
2021/12/24 02:16:18;;;;;;;11.88;6.63;;;;;;;-2.70;82.55;61726.69;5042184;28;20225;-77
2021/12/24 02:29:48;;;;;;;8.70;5.35;;;;;;;-2.67;80.02;61726.75;5066995;28;20549;-77
2021/12/24 02:32:15;;;;;;;9.90;5.07;;;;;;;-2.62;79.79;61734.34;5053694;28;20557;-77
2021/12/24 02:34:42;;;;;;;6.25;5.07;;;;;;;-2.59;80.08;61737.44;5046161;28;20213;-78
2021/12/24 02:37:11;;;;;;;9.00;5.80;;;;;;;-2.57;81.11;61744.47;5046772;28;20218;-78
2021/12/24 02:39:38;;;;;;;6.38;5.15;;;;;;;-2.81;84.38;61712.97;5046409;28;20194;-78
2021/12/24 02:42:14;;;;;;;11.30;5.38;;;;;;;-2.82;84.07;61714.44;5039457;28;20522;-77
2021/12/24 02:44:41;;;;;;;9.75;5.63;;;;;;;-2.83;83.52;61710.91;5062864;28;20201;-77
2021/12/24 02:47:24;;;;;;;7.47;5.00;;;;;;;-2.93;82.70;61703.19;5066574;28;20324;-77
2021/12/24 02:55:22;;;;;;;5.32;4.57;;;;;;;-3.09;84.28;61684.34;5067081;28;20219;-77
2021/12/24 02:57:49;;;;;;;8.93;4.97;;;;;;;-3.09;83.56;61686.34;5067255;28;20197;-77
2021/12/24 03:00:20;;;;;;;9.60;5.68;;;;;;;-3.53;84.90;61649.88;5049520;28;20248;-77
2021/12/24 03:02:48;;;;;;;12.52;6.68;;;;;;;-3.34;85.49;61661.31;5043201;28;20248;-77
2021/12/24 03:05:17;;;;;;;10.25;6.43;;;;;;;-3.36;85.99;61658.75;5045928;28;20507;-77
2021/12/24 03:07:47;;;;;;;12.52;7.68;;;;;;;-3.32;86.49;61665.31;5046534;28;20240;-77
2021/12/24 03:10:17;;;;;;;12.23;7.15;;;;;;;-3.46;87.21;61648.53;5043005;28;20466;-77
2021/12/24 03:12:46;;;;;;;11.90;7.07;;;;;;;-3.52;87.46;61642.94;5046032;28;20213;-76
2021/12/24 03:15:16;;;;;;;6.82;5.55;;;;;;;-3.48;87.09;61642.03;5045447;28;20190;-77
2021/12/24 03:17:49;;;;;;;8.60;5.93;;;;;;;-3.53;85.60;61644.41;5043690;28;20205;-77
2021/12/24 03:20:16;;;;;;;8.18;5.55;;;;;;;-3.52;85.76;61640.94;5042268;28;20538;-77
2021/12/24 03:22:49;;;;;;;10.60;6.13;;;;;;;-3.46;85.32;61646.56;5046337;28;20201;-77
2021/12/24 03:25:18;;;;;;;12.52;5.80;;;;;;;-3.41;85.11;61651.66;5044629;28;20194;-77
2021/12/24 03:27:45;;;;;;;8.88;6.22;;;;;;;-3.37;84.70;61652.75;5067309;28;20201;-76
2021/12/24 03:30:13;;;;;;;7.72;5.70;;;;;;;-3.36;84.10;61661.22;5047424;28;20438;-77
2021/12/24 03:32:40;;;;;;;9.05;5.63;;;;;;;-3.31;83.94;61663.88;5048391;28;20198;-78
2021/12/24 03:35:08;;;;;;;10.27;5.68;;;;;;;-3.29;83.49;61663.94;5046603;28;20230;-77
2021/12/24 03:37:35;;;;;;;9.38;6.50;;;;;;;-3.26;83.22;61666.50;5060308;28;20214;-78
2021/12/24 03:40:02;;;;;;;7.18;5.35;;;;;;;-3.24;82.37;61671.00;5044814;28;20218;-76
2021/12/24 03:42:31;;;;;;;9.98;6.07;;;;;;;-3.13;81.93;61675.28;5045418;28;20546;-77
2021/12/24 03:45:07;;;;;;;10.90;5.65;;;;;;;-3.19;82.01;61673.63;5052841;28;20202;-77
2021/12/24 03:47:38;;;;;;;6.97;4.75;;;;;;;-3.27;81.54;61663.47;5050313;28;20556;-76
2021/12/24 03:50:09;;;;;;;8.25;5.03;;;;;;;-3.09;80.95;61684.34;5045437;28;20255;-76
2021/12/24 03:53:02;;;;;;;8.77;5.00;;;;;;;-3.08;80.67;61685.38;5043691;28;20205;-76
2021/12/24 03:55:28;;;;;;;8.85;5.45;;;;;;;-3.09;81.15;61689.31;5044011;28;20461;-77
2021/12/24 03:57:56;;;;;;;12.63;6.10;;;;;;;-3.09;81.93;61686.34;5044915;28;20206;-76
2021/12/24 04:00:27;;;;;;;8.35;4.78;;;;;;;-3.13;82.24;61679.75;5051245;28;20213;-77
2021/12/24 04:02:54;;;;;;;7.93;4.78;;;;;;;-3.11;82.67;61687.31;5063302;28;20198;-78
2021/12/24 04:05:21;;;;;;;12.15;5.20;;;;;;;-3.08;82.76;61685.38;5053663;28;20253;-77
2021/12/24 04:07:48;;;;;;;7.70;4.47;;;;;;;-3.26;85.05;61662.00;5044907;28;20506;-77
2021/12/24 04:10:25;;;;;;;11.57;5.57;;;;;;;-3.27;84.95;61667.94;5060912;28;20247;-78
2021/12/24 04:12:52;;;;;;;7.07;5.50;;;;;;;-3.31;84.65;61663.88;5060463;28;20208;-77
2021/12/24 04:15:21;;;;;;;9.93;5.70;;;;;;;-3.19;84.79;61681.09;5045254;28;20209;-77
2021/12/24 04:17:49;;;;;;;9.50;5.70;;;;;;;-3.22;84.77;61675.53;5044763;28;20522;-77
2021/12/24 04:25:45;;;;;;;9.88;6.50;;;;;;;-3.13;84.13;61680.28;5058888;28;20228;-76
2021/12/24 04:28:12;;;;;;;12.40;6.97;;;;;;;-3.13;83.64;61679.75;5064679;28;20194;-77
2021/12/24 04:30:46;;;;;;;10.85;6.75;;;;;;;-3.08;83.82;61690.34;5053379;28;20451;-77
2021/12/24 04:33:18;;;;;;;11.65;6.40;;;;;;;-3.16;83.34;61686.66;5043155;28;20197;-77
2021/12/24 04:35:55;;;;;;;12.10;7.18;;;;;;;-3.15;83.86;61678.22;5048662;28;20274;-77
2021/12/24 04:38:57;;;;;;;13.40;7.30;;;;;;;-3.06;83.86;61689.41;5044796;28;20340;-77
2021/12/24 04:52:45;;;;;;;10.15;6.88;;;;;;;-3.07;84.69;61693.38;5041798;28;20488;-77
2021/12/24 05:03:31;;;;;;;17.60;7.57;;;;;;;-3.02;85.54;61696.47;5066294;28;20538;-77
2021/12/24 05:06:10;;;;;;;13.63;7.80;;;;;;;-2.97;85.13;61698.59;5063563;28;20227;-77
2021/12/24 05:08:50;;;;;;;13.43;8.18;;;;;;;-3.06;85.64;61687.44;5060819;28;20264;-77
2021/12/24 05:11:17;;;;;;;9.55;7.28;;;;;;;-2.90;85.66;61705.75;5059854;28;20236;-76
2021/12/24 05:13:45;;;;;;;12.57;7.70;;;;;;;-2.88;84.80;61705.81;5064100;28;20506;-76
2021/12/24 05:16:21;;;;;;;11.57;7.32;;;;;;;-2.82;84.78;61716.94;5047351;28;20218;-77
2021/12/24 05:21:37;;;;;;;13.48;7.07;;;;;;;-2.63;83.21;61728.34;5043892;28;20220;-77
2021/12/24 05:24:07;;;;;;;10.75;7.60;;;;;;;-2.70;83.56;61726.69;5046085;28;20202;-77
2021/12/24 05:26:35;;;;;;;13.75;7.82;;;;;;;-2.70;83.25;61731.69;5059312;28;20221;-77
2021/12/24 05:29:04;;;;;;;13.85;7.15;;;;;;;-2.72;84.14;61719.66;5041940;28;20278;-77
2021/12/24 05:31:32;;;;;;;11.55;7.72;;;;;;;-2.77;84.72;61719.03;5042419;28;20256;-77
2021/12/24 05:34:01;;;;;;;11.13;7.95;;;;;;;-2.72;85.47;61727.16;5055546;28;20209;-77
2021/12/24 05:36:28;;;;;;;10.90;7.57;;;;;;;-2.67;85.68;61727.28;5063785;28;20217;-77
2021/12/24 05:38:56;;;;;;;12.60;8.07;;;;;;;-2.61;84.57;61735.91;5062714;28;20203;-77
2021/12/24 05:41:23;;;;;;;8.40;6.43;;;;;;;-2.66;84.55;61730.28;5050509;28;20227;-79
2021/12/24 05:43:51;;;;;;;19.13;7.72;;;;;;;-2.55;83.74;61742.03;5064059;28;20205;-77
2021/12/24 05:46:18;;;;;;;10.95;8.15;;;;;;;-2.56;83.11;61743.00;5064965;28;20221;-78
2021/12/24 05:48:45;;;;;;;12.20;7.82;;;;;;;-2.57;83.09;61739.47;5061736;28;20441;-76
2021/12/24 05:51:14;;;;;;;10.15;7.20;;;;;;;-2.51;83.05;61741.13;5043281;28;20234;-77
2021/12/24 05:53:41;;;;;;;10.57;7.38;;;;;;;-2.50;83.90;61744.13;5043788;28;20202;-77
2021/12/24 05:56:08;;;;;;;11.02;8.10;;;;;;;-2.53;84.43;61738.56;5048760;28;20518;-77
2021/12/24 05:58:35;;;;;;;16.33;8.00;;;;;;;-2.50;84.67;61747.13;5067956;28;20469;-77
2021/12/24 06:01:03;;;;;;;15.55;7.50;;;;;;;-2.45;84.56;61754.25;5060483;28;20213;-77
2021/12/24 06:03:31;;;;;;;14.80;8.75;;;;;;;-2.35;83.44;61757.47;5064907;28;20198;-77
2021/12/24 06:37:14;;;;;;;13.88;9.50;;;;;;;-1.55;80.09;61843.25;5011042;28;20229;-78
2021/12/24 06:47:22;;;;;;;21.77;10.13;;;;;;;-1.32;79.83;61869.81;4931982;29;20548;-78
2021/12/24 06:50:23;;;;;;;15.88;9.68;;;;;;;-1.20;78.81;61879.09;4987399;28;20218;-78
2021/12/24 06:53:35;;;;;;;;;;;;;;;;;;;;;
2021/12/24 06:56:43;;;;;;;16.08;9.48;;;;;;;-1.08;77.98;61888.88;5014593;28;20245;-78
2021/12/24 07:09:33;;;;;;;16.38;7.85;;;;;;;-0.80;78.27;61920.03;5011483;28;20211;-79
2021/12/24 07:16:11;;;;;;;14.70;8.35;;;;;;;-0.66;77.81;61929.38;5008320;28;20191;-77
2021/12/24 07:19:11;;;;;;;13.82;8.02;;;;;;;-0.49;77.88;61948.78;5002687;28;20207;-79
2021/12/24 07:22:12;;;;;;;15.68;9.02;;;;;;;-0.35;76.91;61961.13;5064762;28;20221;-78
2021/12/24 07:28:06;;;;;;;32.13;16.67;;;;;;;-0.14;76.86;61985.13;5025830;28;21376;-76
2021/12/24 07:30:33;;;;;;;20.33;10.70;;;;;;;0.06;74.85;62007.63;5063857;28;20283;-77
2021/12/24 07:33:01;;;;;;;16.40;8.75;;;;;;;-0.12;73.82;61994.69;5066841;28;20263;-77
2021/12/24 07:35:28;;;;;;;15.32;9.10;;;;;;;-0.18;74.85;61983.03;5065836;28;20198;-77
2021/12/24 07:37:56;;;;;;;15.48;8.90;;;;;;;-0.12;73.92;61989.69;5064027;28;20201;-78
2021/12/24 07:40:25;;;;;;;13.52;8.70;;;;;;;-0.08;73.71;61991.28;5064607;28;20243;-77
2021/12/24 07:42:54;;;;;;;15.50;9.07;;;;;;;0.07;72.57;62005.63;5067649;28;20201;-78
2021/12/24 07:45:24;;;;;;;14.25;9.38;;;;;;;0.11;72.13;62012.75;5062739;28;20201;-78
2021/12/24 07:48:06;;;;;;;62.63;30.23;;;;;;;0.28;71.45;62022.13;5066100;28;20216;-77
2021/12/24 07:53:19;;;;;;;13.13;8.43;;;;;;;0.42;71.18;62042.03;5065759;28;20267;-76
2021/12/24 07:55:47;;;;;;;14.20;8.50;;;;;;;0.49;70.44;62049.19;5064979;28;20275;-77
2021/12/24 07:58:16;;;;;;;15.80;8.45;;;;;;;0.39;70.26;62038.94;5064035;28;20229;-78
2021/12/24 08:00:43;;;;;;;16.02;8.52;;;;;;;0.44;69.71;62046.56;5065418;28;20274;-76
2021/12/24 08:03:10;;;;;;;16.88;8.43;;;;;;;0.45;69.56;62050.09;5064522;28;20477;-77
2021/12/24 08:05:40;;;;;;;17.52;8.63;;;;;;;0.32;69.95;62029.28;5064460;28;20430;-77
2021/12/24 08:08:08;;;;;;;11.40;7.95;;;;;;;0.32;71.64;62029.28;5053149;28;20389;-77
2021/12/24 08:10:37;;;;;;;13.57;9.13;;;;;;;0.26;72.87;62028.13;5063303;28;20255;-78
2021/12/24 08:13:05;;;;;;;35.97;16.20;;;;;;;0.26;72.93;62025.13;5063276;28;20208;-77
2021/12/24 08:15:32;;;;;;;19.70;9.27;;;;;;;0.26;72.28;62025.13;5063346;28;20275;-76
2021/12/24 08:17:59;;;;;;;11.70;7.45;;;;;;;0.06;72.66;62002.09;5064863;28;20254;-78
2021/12/24 08:20:27;;;;;;;13.70;8.77;;;;;;;0.01;72.79;62005.00;5065098;28;20196;-78
2021/12/24 08:22:57;;;;;;;14.10;8.18;;;;;;;0.05;72.97;62004.09;5062113;28;20238;-77
2021/12/24 08:25:25;;;;;;;17.15;8.57;;;;;;;0.09;71.88;62013.19;5054889;28;20208;-78
2021/12/24 08:27:54;;;;;;;17.20;9.93;;;;;;;0.04;72.11;62005.56;5066823;28;20193;-77
2021/12/24 08:30:25;;;;;;;22.45;13.40;;;;;;;-0.08;71.92;61993.28;5067273;28;20201;-78
2021/12/24 08:32:52;;;;;;;16.90;9.23;;;;;;;0.11;71.89;62015.25;5066312;28;20193;-77
2021/12/24 08:35:22;;;;;;;27.50;14.52;;;;;;;0.25;71.70;62027.09;5063622;28;20247;-76
2021/12/24 08:37:49;;;;;;;64.15;28.08;;;;;;;0.39;71.37;62040.94;5065624;28;20196;-77
2021/12/24 08:40:16;;;;;;;83.72;34.95;;;;;;;0.56;71.62;62058.34;5062929;28;20273;-77
2021/12/24 08:42:43;;;;;;;60.60;29.33;;;;;;;0.67;69.97;62067.13;5062790;28;20209;-78
2021/12/24 08:45:12;;;;;;;38.72;20.15;;;;;;;0.67;70.59;62067.13;5048308;28;20194;-77
2021/12/24 08:47:40;;;;;;;36.70;17.77;;;;;;;0.75;71.15;62077.84;5053733;28;20194;-77
2021/12/24 08:50:10;;;;;;;40.60;19.08;;;;;;;0.78;71.33;62081.44;5063304;28;20213;-77
2021/12/24 08:52:37;;;;;;;31.90;16.75;;;;;;;0.91;71.02;62094.78;5065941;28;20221;-77
2021/12/24 08:55:05;;;;;;;30.23;16.33;;;;;;;1.05;71.03;62111.63;5069711;28;20223;-77
2021/12/24 08:57:32;;;;;;;21.63;12.88;;;;;;;1.23;70.46;62129.06;5069276;28;20221;-77
2021/12/24 09:00:02;;;;;;;22.98;13.50;;;;;;;1.21;69.78;62122.53;5066730;28;20209;-77
2021/12/24 09:02:30;;;;;;;25.00;13.55;;;;;;;1.44;69.60;62153.66;5063409;28;20221;-78
2021/12/24 09:04:57;;;;;;;28.98;15.25;;;;;;;1.32;69.27;62138.31;5066053;28;20201;-78
2021/12/24 09:07:24;;;;;;;27.80;14.52;;;;;;;1.19;68.50;62123.00;5064104;28;20271;-77
2021/12/24 09:09:50;;;;;;;28.23;15.25;;;;;;;1.18;70.27;62116.94;5065778;28;20202;-78
2021/12/24 09:12:17;;;;;;;23.17;11.80;;;;;;;1.19;69.90;62123.00;5068017;28;20463;-78
2021/12/24 09:14:47;;;;;;;27.77;13.40;;;;;;;1.18;69.87;62122.47;5068099;28;20197;-80
2021/12/24 09:17:14;;;;;;;23.38;13.52;;;;;;;1.41;69.92;62145.56;5066204;28;20232;-77
2021/12/24 09:19:48;;;;;;;20.58;12.15;;;;;;;1.39;69.02;62142.97;5064123;28;20265;-77
2021/12/24 09:22:17;;;;;;;17.98;11.85;;;;;;;1.55;69.45;62156.91;5065995;28;20294;-78
2021/12/24 09:24:45;;;;;;;19.38;11.35;;;;;;;1.74;68.67;62179.44;5050309;28;20269;-77
2021/12/24 09:27:12;;;;;;;17.33;11.23;;;;;;;1.99;68.58;62204.56;5059561;28;20233;-78
2021/12/24 09:29:41;;;;;;;14.38;8.98;;;;;;;1.82;68.04;62187.63;5069153;28;20212;-77
2021/12/24 09:32:09;;;;;;;14.55;8.23;;;;;;;1.87;68.27;62195.28;5066418;28;20236;-78
2021/12/24 09:34:38;;;;;;;15.02;9.40;;;;;;;1.99;68.45;62205.09;5068070;28;20489;-78
2021/12/24 09:37:08;;;;;;;14.98;8.88;;;;;;;2.12;68.63;62215.41;5068501;28;20221;-78
2021/12/24 09:39:36;;;;;;;14.13;7.75;;;;;;;2.09;68.34;62214.84;5070145;28;20197;-78
2021/12/24 09:42:04;;;;;;;11.65;7.93;;;;;;;2.40;67.87;62241.66;5068935;28;20299;-77
2021/12/24 09:44:31;;;;;;;14.82;9.63;;;;;;;2.56;67.20;62265.09;5069637;28;20240;-77
2021/12/24 09:47:00;;;;;;;15.13;10.05;;;;;;;2.62;66.80;62268.75;5067184;28;20267;-78
2021/12/24 09:49:26;;;;;;;16.60;9.98;;;;;;;2.69;66.97;62275.97;5067584;28;20305;-78
2021/12/24 09:51:53;;;;;;;13.82;9.32;;;;;;;2.58;67.28;62259.63;5066903;28;20588;-78
2021/12/24 09:54:24;;;;;;;14.02;9.48;;;;;;;2.72;67.28;62281.56;5051662;28;20198;-78
2021/12/24 09:56:52;;;;;;;15.02;8.93;;;;;;;2.73;66.50;62282.56;5065622;28;20222;-77
2021/12/24 09:59:19;;;;;;;15.95;9.20;;;;;;;2.81;66.71;62285.78;5065306;28;20205;-78
2021/12/24 10:01:54;;;;;;;13.35;8.43;;;;;;;2.95;66.01;62300.16;5066575;28;20454;-77
2021/12/24 10:04:23;;;;;;;41.75;20.52;;;;;;;3.08;66.17;62319.06;5064403;28;20534;-77
2021/12/24 10:06:51;;;;;;;14.82;8.95;;;;;;;3.19;65.44;62329.88;5069911;28;20229;-78
2021/12/24 10:09:18;;;;;;;11.77;7.95;;;;;;;3.35;65.31;62343.78;5070727;28;20212;-77
2021/12/24 10:11:49;;;;;;;11.13;8.10;;;;;;;3.28;64.57;62337.09;5072621;28;20229;-78
2021/12/24 10:14:18;;;;;;;12.20;9.13;;;;;;;2.89;66.11;62296.50;5063438;28;20521;-78
2021/12/24 10:16:47;;;;;;;17.17;8.82;;;;;;;3.15;65.69;62325.75;5066862;28;20248;-79
2021/12/24 10:19:14;;;;;;;19.15;8.23;;;;;;;3.18;65.99;62326.31;5067467;28;20201;-78
2021/12/24 10:21:43;;;;;;;12.65;9.20;;;;;;;3.29;65.47;62335.09;5066849;28;20236;-79
2021/12/24 10:24:19;;;;;;;12.15;8.07;;;;;;;3.39;64.90;62350.94;5065732;28;20435;-78
2021/12/24 10:26:49;;;;;;;11.77;8.63;;;;;;;3.59;63.99;62363.44;5068257;28;20225;-78
2021/12/24 10:29:28;;;;;;;16.98;9.55;;;;;;;3.33;64.51;62336.72;5071861;28;20207;-78
2021/12/24 10:31:57;;;;;;;16.25;9.93;;;;;;;3.49;64.95;62358.19;5071222;28;20261;-79
2021/12/24 10:34:26;;;;;;;12.10;7.72;;;;;;;3.64;64.84;62370.59;5066358;28;20499;-78
2021/12/24 10:37:12;;;;;;;13.85;8.65;;;;;;;3.71;64.33;62378.28;5069441;28;20205;-78
2021/12/24 10:39:47;;;;;;;13.98;9.23;;;;;;;3.87;63.30;62397.25;5071472;28;20276;-79
2021/12/24 10:42:23;;;;;;;16.75;8.50;;;;;;;4.01;62.82;62411.16;5071169;28;20228;-79
2021/12/24 10:44:53;;;;;;;14.65;9.63;;;;;;;3.97;62.53;62404.53;5068567;28;20197;-78
2021/12/24 10:47:23;;;;;;;33.83;18.85;;;;;;;4.24;61.83;62434.81;5070680;28;20224;-79
2021/12/24 10:50:06;;;;;;;25.52;14.95;;;;;;;4.24;62.35;62437.34;5061032;28;20539;-79
2021/12/24 10:55:33;;;;;;;14.88;9.57;;;;;;;4.40;61.58;62451.78;5047512;28;20204;-79
2021/12/24 10:58:03;;;;;;;17.52;9.20;;;;;;;4.48;61.47;62459.50;5052394;28;20226;-78
2021/12/24 11:00:33;;;;;;;15.98;8.73;;;;;;;4.61;60.95;62478.44;5067634;28;20221;-79
2021/12/24 11:03:02;;;;;;;17.77;9.77;;;;;;;4.65;61.14;62477.53;5066340;28;20201;-79
2021/12/24 11:05:35;;;;;;;15.38;8.55;;;;;;;4.50;61.51;62459.06;5065119;28;20200;-79
2021/12/24 11:08:20;;;;;;;13.85;8.90;;;;;;;4.61;60.66;62470.38;5061053;28;20197;-79
2021/12/24 11:10:49;;;;;;;14.98;9.18;;;;;;;4.71;60.09;62478.16;5061760;28;20234;-79
2021/12/24 11:13:28;;;;;;;13.55;8.55;;;;;;;5.00;60.25;62510.00;5057004;28;20304;-79
2021/12/24 11:15:56;;;;;;;15.80;10.13;;;;;;;4.98;60.36;62513.00;5068451;28;20245;-79
2021/12/24 11:18:25;;;;;;;24.65;14.85;;;;;;;5.12;59.91;62524.88;5061496;28;20208;-79
2021/12/24 11:20:54;;;;;;;17.15;8.57;;;;;;;5.23;59.92;62539.25;5068101;28;20394;-77
2021/12/24 11:23:22;;;;;;;12.27;8.27;;;;;;;5.28;59.72;62538.84;5070493;28;20201;-79
2021/12/24 11:25:52;;;;;;;12.00;8.60;;;;;;;5.41;59.90;62552.22;5065887;28;20224;-78
2021/12/24 11:28:21;;;;;;;10.35;8.30;;;;;;;5.59;58.69;62573.31;5065198;28;20198;-78
2021/12/24 11:30:52;;;;;;;11.00;8.50;;;;;;;5.61;58.62;62572.81;5071044;28;20280;-79
2021/12/24 11:33:25;;;;;;;15.63;8.30;;;;;;;5.70;58.24;62587.66;5069036;28;20304;-79
2021/12/24 11:35:53;;;;;;;13.35;8.70;;;;;;;5.68;58.73;62583.09;5065859;28;20225;-78
2021/12/24 11:38:22;;;;;;;25.45;16.33;;;;;;;5.83;58.37;62598.56;5066135;28;21459;-78
2021/12/24 11:40:52;;;;;;;18.33;11.13;;;;;;;5.83;58.73;62595.53;5067180;28;20267;-79
2021/12/24 11:43:21;;;;;;;10.85;8.65;;;;;;;5.83;58.66;62596.03;5066849;28;20201;-78
2021/12/24 11:45:49;;;;;;;14.85;8.02;;;;;;;5.92;58.10;62607.31;5067783;28;20259;-78
2021/12/24 11:48:19;;;;;;;10.98;7.50;;;;;;;5.90;57.51;62607.78;5066177;28;20206;-80
2021/12/24 11:50:45;;;;;;;13.60;8.15;;;;;;;5.74;58.37;62591.28;5064585;28;20292;-79
2021/12/24 11:53:18;;;;;;;14.00;9.85;;;;;;;5.74;58.81;62588.75;5065489;28;20232;-78
2021/12/24 11:55:48;;;;;;;15.27;8.25;;;;;;;5.79;58.86;62589.38;5068661;28;20217;-78
2021/12/24 11:58:25;;;;;;;10.10;8.18;;;;;;;5.87;58.53;62601.66;5067649;28;20201;-80
2021/12/24 12:00:55;;;;;;;17.70;9.00;;;;;;;5.89;58.81;62601.69;5068680;28;20262;-79
2021/12/24 12:03:33;;;;;;;15.15;8.13;;;;;;;5.80;58.98;62600.50;5066534;28;20209;-78
2021/12/24 12:06:05;;;;;;;15.55;7.30;;;;;;;5.79;59.35;62594.44;5068422;28;20303;-79
2021/12/24 12:08:44;;;;;;;11.93;7.20;;;;;;;5.72;59.69;62586.69;5066599;28;20197;-79
2021/12/24 12:11:20;;;;;;;12.38;6.90;;;;;;;5.72;60.13;62584.16;5068506;28;20229;-80
2021/12/24 12:13:53;;;;;;;18.08;7.97;;;;;;;5.73;60.06;62588.22;5069011;28;20219;-79
2021/12/24 12:16:25;;;;;;;11.18;6.80;;;;;;;5.76;59.97;62585.75;5067703;28;20271;-78
2021/12/24 12:19:14;;;;;;;8.05;5.97;;;;;;;5.88;60.27;62600.69;5067298;28;20197;-79
2021/12/24 12:21:44;;;;;;;15.30;7.55;;;;;;;6.04;59.65;62619.19;5066438;28;20537;-78
2021/12/24 12:27:18;;;;;;;7.72;6.57;;;;;;;6.25;59.62;62643.84;5073213;28;20243;-79
2021/12/24 12:29:46;;;;;;;8.00;7.05;;;;;;;6.21;59.61;62632.16;5059904;28;20201;-78
2021/12/24 12:32:28;;;;;;;11.52;7.55;;;;;;;6.35;59.87;62651.13;5064485;28;20414;-79
2021/12/24 12:35:01;;;;;;;11.27;8.00;;;;;;;6.49;59.53;62668.59;5068392;28;20205;-78
2021/12/24 12:37:30;;;;;;;12.73;7.90;;;;;;;6.69;60.34;62688.72;5066846;28;20225;-79
2021/12/24 12:40:04;;;;;;;13.65;6.55;;;;;;;6.84;58.38;62701.66;5150576;22;20234;-78
2021/12/24 12:43:02;;;;;;;12.55;7.13;;;;;;;6.97;58.05;62715.59;5047228;28;20225;-78
2021/12/24 12:45:55;;;;;;;9.02;6.88;;;;;;;7.14;57.48;62737.16;5046861;28;20202;-79
2021/12/24 12:48:25;;;;;;;13.27;7.18;;;;;;;7.18;57.79;62736.72;5045286;28;20240;-79
2021/12/24 12:50:56;;;;;;;13.25;8.43;;;;;;;7.25;57.61;62738.88;5047535;28;20233;-78
2021/12/24 12:53:31;;;;;;;13.70;8.73;;;;;;;7.26;57.38;62745.00;5154923;22;20502;-80
2021/12/24 12:56:12;;;;;;;15.55;8.02;;;;;;;7.23;57.46;62744.41;5067746;28;20246;-79
2021/12/24 12:58:41;;;;;;;13.48;7.07;;;;;;;7.33;57.38;62747.16;5071395;28;20248;-78
2021/12/24 13:01:14;;;;;;;10.55;7.75;;;;;;;7.32;56.73;62750.66;5067630;28;20225;-79
2021/12/24 13:04:10;;;;;;;10.20;7.25;;;;;;;7.04;58.09;62722.28;5066288;28;20201;-79
2021/12/24 13:06:55;;;;;;;11.15;7.90;;;;;;;6.96;57.75;62714.56;5062787;28;20407;-79
2021/12/24 13:09:32;;;;;;;15.98;7.70;;;;;;;7.10;57.47;62725.44;5062262;28;20220;-79
2021/12/24 13:12:01;;;;;;;9.23;6.55;;;;;;;7.16;57.52;62734.69;5065926;28;20217;-79
2021/12/24 13:14:29;;;;;;;10.15;6.93;;;;;;;7.08;57.43;62726.41;5062755;28;20247;-77
2021/12/24 13:17:18;;;;;;;6.07;2.03;;;;;;;7.38;55.74;62754.84;5065826;28;20224;-79
2021/12/24 13:20:15;;;;;;;1.80;1.70;;;;;;;8.05;53.44;62820.94;5058983;28;20211;-79
2021/12/24 13:22:41;;;;;;;1.05;1.05;;;;;;;8.27;52.68;62843.16;5069402;28;20220;-79
2021/12/24 13:25:14;;;;;;;6.55;4.85;;;;;;;8.49;52.24;62870.97;5053855;28;20378;-78
2021/12/24 13:27:44;;;;;;;1.40;1.30;;;;;;;8.48;51.60;62869.94;5069500;28;20197;-79
2021/12/24 13:30:15;;;;;;;3.42;3.10;;;;;;;8.37;52.44;62858.59;5072252;28;20212;-78
2021/12/24 13:32:50;;;;;;;10.07;6.05;;;;;;;8.08;53.44;62829.63;5066329;28;20229;-79
2021/12/24 13:35:20;;;;;;;6.95;6.22;;;;;;;7.88;53.92;62808.47;5066417;28;20197;-79
2021/12/24 13:37:47;;;;;;;6.60;5.65;;;;;;;7.66;54.49;62783.72;5065457;28;20240;-78
2021/12/24 13:40:16;;;;;;;8.18;5.57;;;;;;;7.58;55.27;62780.03;5053877;28;20432;-78
2021/12/24 13:42:46;;;;;;;9.80;5.47;;;;;;;7.28;56.21;62746.53;5065138;28;20201;-79
2021/12/24 13:45:13;;;;;;;5.00;3.53;;;;;;;7.18;56.71;62736.22;5066317;28;20447;-79
2021/12/24 13:47:52;;;;;;;3.53;3.22;;;;;;;7.02;56.80;62723.28;5063503;28;20201;-79
2021/12/24 13:56:03;;;;;;;7.03;5.30;;;;;;;7.11;57.60;62731.53;5063494;28;20220;-79
2021/12/24 13:58:30;;;;;;;5.97;4.70;;;;;;;7.18;57.30;62733.69;5065538;28;20268;-77
2021/12/24 14:00:59;;;;;;;1.90;1.80;;;;;;;7.36;56.30;62757.31;5064638;28;20467;-80
2021/12/24 14:03:29;;;;;;;2.70;2.50;;;;;;;7.47;56.08;62766.66;5057299;28;20194;-80
2021/12/24 14:06:00;;;;;;;3.75;3.15;;;;;;;7.58;56.06;62775.47;5065998;28;20229;-79
2021/12/24 14:08:29;;;;;;;3.78;3.25;;;;;;;7.53;56.28;62772.84;5063455;28;20204;-80
2021/12/24 14:11:07;;;;;;;4.75;3.60;;;;;;;7.67;55.72;62784.25;5064905;28;20221;-79
2021/12/24 14:13:38;;;;;;;1.67;1.58;;;;;;;7.71;55.39;62788.38;5065480;28;20232;-79
2021/12/24 14:16:12;;;;;;;3.45;2.58;;;;;;;7.73;55.07;62790.47;5064187;28;20218;-78